sensor_id;sensor_type;location;lat;lon;timestamp;pressure;altitude;pressure_sealevel;temperature;humidity
53116;BME280;39010;48.088;7.954;2022-09-02T00:01:17;98509.94;;;14.55;94.74
53116;BME280;39010;48.088;7.954;2022-09-02T00:03:45;98505.81;;;14.46;94.63
53116;BME280;39010;48.088;7.954;2022-09-02T00:06:13;98503.72;;;14.41;95.22
53116;BME280;39010;48.088;7.954;2022-09-02T00:08:40;98507.25;;;14.41;94.61
53116;BME280;39010;48.088;7.954;2022-09-02T00:11:09;98504.53;;;14.48;92.98
53116;BME280;39010;48.088;7.954;2022-09-02T00:13:37;98500.78;;;14.56;91.23
53116;BME280;39010;48.088;7.954;2022-09-02T00:16:04;98501.88;;;14.21;95.02
53116;BME280;39010;48.088;7.954;2022-09-02T00:18:32;98505.81;;;14.25;94.96
53116;BME280;39010;48.088;7.954;2022-09-02T00:20:59;98497.72;;;14.32;94.21
53116;BME280;39010;48.088;7.954;2022-09-02T00:23:25;98495.00;;;14.32;94.09
53116;BME280;39010;48.088;7.954;2022-09-02T00:25:52;98498.78;;;14.18;95.82
53116;BME280;39010;48.088;7.954;2022-09-02T00:28:19;98498.78;;;14.18;95.48
53116;BME280;39010;48.088;7.954;2022-09-02T00:30:46;98502.06;;;14.26;93.62
53116;BME280;39010;48.088;7.954;2022-09-02T00:33:13;98510.19;;;14.20;94.34
53116;BME280;39010;48.088;7.954;2022-09-02T00:35:41;98505.00;;;14.11;94.40
53116;BME280;39010;48.088;7.954;2022-09-02T00:38:08;98504.41;;;14.03;95.26
53116;BME280;39010;48.088;7.954;2022-09-02T00:40:36;98503.34;;;14.04;95.07
53116;BME280;39010;48.088;7.954;2022-09-02T00:43:06;98507.06;;;13.96;95.59
53116;BME280;39010;48.088;7.954;2022-09-02T00:45:34;98498.16;;;14.09;95.15
53116;BME280;39010;48.088;7.954;2022-09-02T00:48:01;98499.59;;;13.98;95.91
53116;BME280;39010;48.088;7.954;2022-09-02T00:50:29;98505.22;;;13.90;96.35
53116;BME280;39010;48.088;7.954;2022-09-02T00:53:05;98507.91;;;13.90;97.09
53116;BME280;39010;48.088;7.954;2022-09-02T00:55:35;98512.47;;;13.96;98.30
53116;BME280;39010;48.088;7.954;2022-09-02T00:58:25;98508.31;;;13.87;98.62
53116;BME280;39010;48.088;7.954;2022-09-02T01:00:54;98504.19;;;13.84;98.00
53116;BME280;39010;48.088;7.954;2022-09-02T01:03:25;98511.66;;;13.82;99.24
53116;BME280;39010;48.088;7.954;2022-09-02T01:05:54;98506.03;;;13.70;100.00
53116;BME280;39010;48.088;7.954;2022-09-02T01:08:30;98512.47;;;13.62;100.00
53116;BME280;39010;48.088;7.954;2022-09-02T01:11:00;98502.88;;;13.46;100.00
53116;BME280;39010;48.088;7.954;2022-09-02T01:13:29;98505.56;;;13.46;100.00
53116;BME280;39010;48.088;7.954;2022-09-02T01:16:29;98492.94;;;13.47;100.00
53116;BME280;39010;48.088;7.954;2022-09-02T01:18:58;98500.31;;;13.38;100.00
53116;BME280;39010;48.088;7.954;2022-09-02T01:21:26;98499.13;;;13.47;100.00
53116;BME280;39010;48.088;7.954;2022-09-02T01:23:53;98496.84;;;13.44;100.00
53116;BME280;39010;48.088;7.954;2022-09-02T01:26:20;98497.69;;;13.45;100.00
53116;BME280;39010;48.088;7.954;2022-09-02T01:28:46;98493.28;;;13.30;100.00
53116;BME280;39010;48.088;7.954;2022-09-02T01:31:13;98497.41;;;13.19;100.00
53116;BME280;39010;48.088;7.954;2022-09-02T01:33:39;98483.75;;;13.41;100.00
53116;BME280;39010;48.088;7.954;2022-09-02T01:36:08;98492.84;;;13.26;100.00
53116;BME280;39010;48.088;7.954;2022-09-02T01:38:35;98500.50;;;13.30;100.00
53116;BME280;39010;48.088;7.954;2022-09-02T01:41:01;98482.88;;;13.20;100.00
53116;BME280;39010;48.088;7.954;2022-09-02T01:43:29;98487.66;;;13.18;100.00
53116;BME280;39010;48.088;7.954;2022-09-02T01:45:56;98481.41;;;13.18;100.00
53116;BME280;39010;48.088;7.954;2022-09-02T01:48:26;98475.63;;;13.14;100.00
53116;BME280;39010;48.088;7.954;2022-09-02T01:50:59;98471.44;;;13.05;100.00
53116;BME280;39010;48.088;7.954;2022-09-02T01:53:27;98477.06;;;13.10;100.00
53116;BME280;39010;48.088;7.954;2022-09-02T01:55:55;98472.06;;;13.07;100.00
53116;BME280;39010;48.088;7.954;2022-09-02T01:58:22;98473.31;;;13.11;99.68
53116;BME280;39010;48.088;7.954;2022-09-02T02:00:49;98472.84;;;12.94;100.00
53116;BME280;39010;48.088;7.954;2022-09-02T02:03:16;98465.19;;;12.98;100.00
53116;BME280;39010;48.088;7.954;2022-09-02T02:05:42;98479.47;;;12.98;100.00
53116;BME280;39010;48.088;7.954;2022-09-02T02:08:13;98469.97;;;12.95;100.00
53116;BME280;39010;48.088;7.954;2022-09-02T02:10:40;98478.22;;;12.87;100.00
53116;BME280;39010;48.088;7.954;2022-09-02T02:13:07;98472.38;;;12.84;100.00
53116;BME280;39010;48.088;7.954;2022-09-02T02:15:37;98480.28;;;12.85;100.00
53116;BME280;39010;48.088;7.954;2022-09-02T02:18:04;98478.59;;;12.84;100.00
53116;BME280;39010;48.088;7.954;2022-09-02T02:20:31;98469.69;;;12.84;100.00
53116;BME280;39010;48.088;7.954;2022-09-02T02:22:57;98479.41;;;12.78;100.00
53116;BME280;39010;48.088;7.954;2022-09-02T02:25:24;98474.66;;;12.80;100.00
53116;BME280;39010;48.088;7.954;2022-09-02T02:27:52;98467.38;;;12.74;100.00
53116;BME280;39010;48.088;7.954;2022-09-02T02:30:20;98477.91;;;12.69;100.00
53116;BME280;39010;48.088;7.954;2022-09-02T02:32:47;98477.13;;;12.75;100.00
53116;BME280;39010;48.088;7.954;2022-09-02T02:35:16;98476.50;;;12.73;100.00
53116;BME280;39010;48.088;7.954;2022-09-02T02:37:44;98468.19;;;12.74;100.00
53116;BME280;39010;48.088;7.954;2022-09-02T02:40:16;98471.28;;;12.71;100.00
53116;BME280;39010;48.088;7.954;2022-09-02T02:42:46;98476.25;;;12.67;100.00
53116;BME280;39010;48.088;7.954;2022-09-02T02:45:13;98477.28;;;12.66;100.00
53116;BME280;39010;48.088;7.954;2022-09-02T02:47:42;98487.59;;;12.63;100.00
53116;BME280;39010;48.088;7.954;2022-09-02T02:50:14;98486.31;;;12.52;100.00
53116;BME280;39010;48.088;7.954;2022-09-02T02:52:41;98480.47;;;12.48;100.00
53116;BME280;39010;48.088;7.954;2022-09-02T02:55:10;98482.19;;;12.56;100.00
53116;BME280;39010;48.088;7.954;2022-09-02T02:57:38;98480.31;;;12.50;100.00
53116;BME280;39010;48.088;7.954;2022-09-02T03:00:19;98483.41;;;12.47;100.00
53116;BME280;39010;48.088;7.954;2022-09-02T03:02:46;98477.16;;;12.46;100.00
53116;BME280;39010;48.088;7.954;2022-09-02T03:05:14;98478.81;;;12.41;100.00
53116;BME280;39010;48.088;7.954;2022-09-02T03:07:41;98471.53;;;12.41;100.00
53116;BME280;39010;48.088;7.954;2022-09-02T03:10:11;98477.28;;;12.31;100.00
53116;BME280;39010;48.088;7.954;2022-09-02T03:12:40;98480.34;;;12.21;100.00
53116;BME280;39010;48.088;7.954;2022-09-02T03:15:08;98478.31;;;12.30;100.00
53116;BME280;39010;48.088;7.954;2022-09-02T03:17:34;98489.09;;;12.30;100.00
53116;BME280;39010;48.088;7.954;2022-09-02T03:20:02;98489.47;;;12.27;100.00
53116;BME280;39010;48.088;7.954;2022-09-02T03:22:34;98484.06;;;12.20;98.50
53116;BME280;39010;48.088;7.954;2022-09-02T03:25:05;98483.19;;;12.13;100.00
53116;BME280;39010;48.088;7.954;2022-09-02T03:27:32;98486.06;;;12.12;100.00
53116;BME280;39010;48.088;7.954;2022-09-02T03:30:00;98484.22;;;12.12;100.00
53116;BME280;39010;48.088;7.954;2022-09-02T03:32:27;98483.97;;;12.07;100.00
53116;BME280;39010;48.088;7.954;2022-09-02T03:34:56;98484.00;;;12.14;100.00
53116;BME280;39010;48.088;7.954;2022-09-02T03:37:22;98481.06;;;12.08;100.00
53116;BME280;39010;48.088;7.954;2022-09-02T03:39:49;98482.22;;;11.99;100.00
53116;BME280;39010;48.088;7.954;2022-09-02T03:42:17;98479.53;;;11.99;100.00
53116;BME280;39010;48.088;7.954;2022-09-02T03:44:47;98474.00;;;12.01;100.00
53116;BME280;39010;48.088;7.954;2022-09-02T03:47:14;98474.81;;;12.01;100.00
53116;BME280;39010;48.088;7.954;2022-09-02T03:49:46;98478.53;;;12.00;100.00
53116;BME280;39010;48.088;7.954;2022-09-02T03:52:12;98478.69;;;11.99;100.00
53116;BME280;39010;48.088;7.954;2022-09-02T03:54:39;98478.06;;;11.97;100.00
53116;BME280;39010;48.088;7.954;2022-09-02T03:57:06;98476.06;;;12.05;100.00
53116;BME280;39010;48.088;7.954;2022-09-02T03:59:32;98472.13;;;12.01;100.00
53116;BME280;39010;48.088;7.954;2022-09-02T04:02:00;98470.56;;;11.92;100.00
53116;BME280;39010;48.088;7.954;2022-09-02T04:04:29;98474.81;;;12.01;100.00
53116;BME280;39010;48.088;7.954;2022-09-02T04:06:56;98472.75;;;12.03;97.34
53116;BME280;39010;48.088;7.954;2022-09-02T04:09:22;98472.47;;;11.98;98.40
53116;BME280;39010;48.088;7.954;2022-09-02T04:11:49;98471.34;;;11.86;98.48
53116;BME280;39010;48.088;7.954;2022-09-02T04:14:15;98477.34;;;11.88;100.00
53116;BME280;39010;48.088;7.954;2022-09-02T04:16:42;98471.09;;;11.81;100.00
53116;BME280;39010;48.088;7.954;2022-09-02T04:19:09;98464.91;;;11.80;100.00
53116;BME280;39010;48.088;7.954;2022-09-02T04:21:38;98475.00;;;11.78;100.00
53116;BME280;39010;48.088;7.954;2022-09-02T04:24:08;98470.66;;;11.77;100.00
53116;BME280;39010;48.088;7.954;2022-09-02T04:26:37;98479.81;;;11.83;100.00
53116;BME280;39010;48.088;7.954;2022-09-02T04:29:12;98472.06;;;11.73;100.00
53116;BME280;39010;48.088;7.954;2022-09-02T04:31:39;98473.66;;;11.67;100.00
53116;BME280;39010;48.088;7.954;2022-09-02T04:34:06;98474.50;;;11.68;100.00
53116;BME280;39010;48.088;7.954;2022-09-02T04:36:33;98466.63;;;11.66;100.00
53116;BME280;39010;48.088;7.954;2022-09-02T04:39:04;98465.59;;;11.67;100.00
53116;BME280;39010;48.088;7.954;2022-09-02T04:41:32;98466.63;;;11.66;99.48
53116;BME280;39010;48.088;7.954;2022-09-02T04:44:04;98471.19;;;11.66;100.00
53116;BME280;39010;48.088;7.954;2022-09-02T04:46:36;98466.63;;;11.66;100.00
53116;BME280;39010;48.088;7.954;2022-09-02T04:49:06;98467.66;;;11.65;100.00
53116;BME280;39010;48.088;7.954;2022-09-02T04:51:35;98471.38;;;11.64;98.36
53116;BME280;39010;48.088;7.954;2022-09-02T04:54:03;98466.38;;;11.61;98.54
53116;BME280;39010;48.088;7.954;2022-09-02T04:56:30;98470.28;;;11.58;99.36
53116;BME280;39010;48.088;7.954;2022-09-02T04:59:02;98463.69;;;11.61;100.00
53116;BME280;39010;48.088;7.954;2022-09-02T05:01:30;98464.16;;;11.64;100.00
53116;BME280;39010;48.088;7.954;2022-09-02T05:04:05;98460.19;;;11.60;100.00
53116;BME280;39010;48.088;7.954;2022-09-02T05:06:35;98461.34;;;11.51;99.66
53116;BME280;39010;48.088;7.954;2022-09-02T05:09:07;98466.50;;;11.53;98.01
53116;BME280;39010;48.088;7.954;2022-09-02T05:11:35;98467.34;;;11.53;96.91
53116;BME280;39010;48.088;7.954;2022-09-02T05:14:05;98464.84;;;11.52;97.36
53116;BME280;39010;48.088;7.954;2022-09-02T05:16:36;98474.78;;;11.51;97.54
53116;BME280;39010;48.088;7.954;2022-09-02T05:19:07;98474.53;;;11.46;97.20
53116;BME280;39010;48.088;7.954;2022-09-02T05:21:44;98472.38;;;11.63;92.06
53116;BME280;39010;48.088;7.954;2022-09-02T05:24:20;98477.34;;;11.59;96.08
53116;BME280;39010;48.088;7.954;2022-09-02T05:26:53;98472.78;;;11.60;98.30
53116;BME280;39010;48.088;7.954;2022-09-02T05:29:19;98475.28;;;11.61;98.82
53116;BME280;39010;48.088;7.954;2022-09-02T05:31:47;98477.38;;;11.66;100.00
53116;BME280;39010;48.088;7.954;2022-09-02T05:34:15;98472.00;;;11.66;100.00
53116;BME280;39010;48.088;7.954;2022-09-02T05:36:41;98470.34;;;11.65;99.19
53116;BME280;39010;48.088;7.954;2022-09-02T05:39:09;98459.59;;;11.65;99.06
53116;BME280;39010;48.088;7.954;2022-09-02T05:41:36;98462.13;;;11.73;98.54
53116;BME280;39010;48.088;7.954;2022-09-02T05:44:05;98459.75;;;11.85;99.10
53116;BME280;39010;48.088;7.954;2022-09-02T05:46:34;98457.75;;;11.94;99.15
53116;BME280;39010;48.088;7.954;2022-09-02T05:49:02;98461.19;;;12.03;98.00
53116;BME280;39010;48.088;7.954;2022-09-02T05:51:40;98460.91;;;12.26;99.91
53116;BME280;39010;48.088;7.954;2022-09-02T05:54:10;98464.09;;;12.08;95.55
53116;BME280;39010;48.088;7.954;2022-09-02T05:56:39;98458.28;;;12.40;93.48
53116;BME280;39010;48.088;7.954;2022-09-02T05:59:12;98467.22;;;12.12;92.08
53116;BME280;39010;48.088;7.954;2022-09-02T06:01:38;98469.59;;;12.21;90.66
53116;BME280;39010;48.088;7.954;2022-09-02T06:04:05;98464.31;;;12.42;88.26
53116;BME280;39010;48.088;7.954;2022-09-02T06:06:34;98476.91;;;12.34;88.83
53116;BME280;39010;48.088;7.954;2022-09-02T06:09:07;98467.66;;;12.50;88.17
53116;BME280;39010;48.088;7.954;2022-09-02T06:11:36;98463.88;;;12.80;87.69
53116;BME280;39010;48.088;7.954;2022-09-02T06:14:08;98468.78;;;13.18;85.36
53116;BME280;39010;48.088;7.954;2022-09-02T06:16:37;98466.56;;;13.42;84.02
53116;BME280;39010;48.088;7.954;2022-09-02T06:19:09;98461.00;;;13.84;84.74
53116;BME280;39010;48.088;7.954;2022-09-02T06:21:37;98466.59;;;14.09;79.05
53116;BME280;39010;48.088;7.954;2022-09-02T06:24:05;98455.53;;;14.38;76.58
53116;BME280;39010;48.088;7.954;2022-09-02T06:26:34;98455.91;;;14.55;76.96
53116;BME280;39010;48.088;7.954;2022-09-02T06:29:00;98452.97;;;14.63;76.97
53116;BME280;39010;48.088;7.954;2022-09-02T06:31:28;98454.75;;;14.96;74.86
53116;BME280;39010;48.088;7.954;2022-09-02T06:34:02;98458.59;;;15.14;75.69
53116;BME280;39010;48.088;7.954;2022-09-02T06:36:30;98450.28;;;15.15;73.31
53116;BME280;39010;48.088;7.954;2022-09-02T06:39:00;98455.91;;;15.46;72.89
53116;BME280;39010;48.088;7.954;2022-09-02T06:41:31;98454.41;;;15.82;72.41
53116;BME280;39010;48.088;7.954;2022-09-02T06:44:03;98458.38;;;15.80;71.82
53116;BME280;39010;48.088;7.954;2022-09-02T06:46:39;98448.63;;;16.04;70.32
53116;BME280;39010;48.088;7.954;2022-09-02T06:49:11;98455.16;;;16.59;67.30
53116;BME280;39010;48.088;7.954;2022-09-02T06:51:41;98452.34;;;16.47;67.45
53116;BME280;39010;48.088;7.954;2022-09-02T06:54:12;98444.22;;;16.84;67.81
53116;BME280;39010;48.088;7.954;2022-09-02T06:56:40;98441.34;;;17.28;64.96
53116;BME280;39010;48.088;7.954;2022-09-02T06:59:17;98440.28;;;17.29;66.04
53116;BME280;39010;48.088;7.954;2022-09-02T07:01:48;98440.66;;;17.02;64.86
53116;BME280;39010;48.088;7.954;2022-09-02T07:04:18;98427.50;;;17.48;64.44
53116;BME280;39010;48.088;7.954;2022-09-02T07:07:06;98440.31;;;17.95;63.86
53116;BME280;39010;48.088;7.954;2022-09-02T07:09:40;98433.28;;;18.71;60.95
53116;BME280;39010;48.088;7.954;2022-09-02T07:12:11;98427.03;;;18.70;59.60
53116;BME280;39010;48.088;7.954;2022-09-02T07:14:45;98434.13;;;18.72;59.62
53116;BME280;39010;48.088;7.954;2022-09-02T07:17:14;98436.91;;;19.01;57.98
53116;BME280;39010;48.088;7.954;2022-09-02T07:19:52;98418.53;;;19.54;57.76
53116;BME280;39010;48.088;7.954;2022-09-02T07:22:21;98439.25;;;19.55;57.26
53116;BME280;39010;48.088;7.954;2022-09-02T07:24:48;98434.47;;;19.62;56.39
53116;BME280;39010;48.088;7.954;2022-09-02T07:27:15;98432.41;;;20.43;54.62
53116;BME280;39010;48.088;7.954;2022-09-02T07:29:42;98427.94;;;20.54;52.76
53116;BME280;39010;48.088;7.954;2022-09-02T07:32:10;98427.22;;;20.41;55.67
53116;BME280;39010;48.088;7.954;2022-09-02T07:34:37;98418.38;;;20.96;52.51
53116;BME280;39010;48.088;7.954;2022-09-02T07:37:03;98428.16;;;20.92;52.68
53116;BME280;39010;48.088;7.954;2022-09-02T07:39:36;98426.38;;;20.80;53.20
53116;BME280;39010;48.088;7.954;2022-09-02T07:42:04;98432.69;;;20.64;53.26
53116;BME280;39010;48.088;7.954;2022-09-02T07:44:33;98428.13;;;20.08;53.04
53116;BME280;39010;48.088;7.954;2022-09-02T07:46:59;98426.28;;;21.19;51.14
53116;BME280;39010;48.088;7.954;2022-09-02T07:49:28;98429.25;;;21.45;53.15
53116;BME280;39010;48.088;7.954;2022-09-02T07:52:14;98424.78;;;21.34;52.05
53116;BME280;39010;48.088;7.954;2022-09-02T07:54:42;98427.66;;;22.20;50.69
53116;BME280;39010;48.088;7.954;2022-09-02T07:57:10;98431.56;;;21.59;52.06
53116;BME280;39010;48.088;7.954;2022-09-02T07:59:36;98434.03;;;22.31;52.30
53116;BME280;39010;48.088;7.954;2022-09-02T08:02:03;98427.44;;;22.75;50.40
53116;BME280;39010;48.088;7.954;2022-09-02T08:04:36;98428.53;;;22.79;50.43
53116;BME280;39010;48.088;7.954;2022-09-02T08:07:06;98427.97;;;22.72;50.00
53116;BME280;39010;48.088;7.954;2022-09-02T08:09:32;98436.44;;;22.65;50.23
53116;BME280;39010;48.088;7.954;2022-09-02T08:11:58;98438.16;;;22.87;50.81
53116;BME280;39010;48.088;7.954;2022-09-02T08:14:25;98426.44;;;23.02;50.93
53116;BME280;39010;48.088;7.954;2022-09-02T08:16:56;98428.34;;;22.96;51.13
53116;BME280;39010;48.088;7.954;2022-09-02T08:19:23;98424.63;;;23.54;50.21
53116;BME280;39010;48.088;7.954;2022-09-02T08:21:50;98428.47;;;23.58;48.97
53116;BME280;39010;48.088;7.954;2022-09-02T08:24:17;98424.38;;;23.56;49.13
53116;BME280;39010;48.088;7.954;2022-09-02T08:26:43;98426.00;;;23.98;48.55
53116;BME280;39010;48.088;7.954;2022-09-02T08:29:10;98421.06;;;23.43;49.42
53116;BME280;39010;48.088;7.954;2022-09-02T08:31:37;98421.06;;;24.10;47.22
53116;BME280;39010;48.088;7.954;2022-09-02T08:34:04;98421.91;;;23.85;48.29
53116;BME280;39010;48.088;7.954;2022-09-02T08:36:31;98427.66;;;23.68;48.78
53116;BME280;39010;48.088;7.954;2022-09-02T08:39:01;98422.75;;;23.75;49.61
53116;BME280;39010;48.088;7.954;2022-09-02T08:44:28;98415.03;;;23.98;49.07
53116;BME280;39010;48.088;7.954;2022-09-02T08:46:57;98409.00;;;23.96;49.00
53116;BME280;39010;48.088;7.954;2022-09-02T08:49:43;98406.25;;;24.06;47.02
53116;BME280;39010;48.088;7.954;2022-09-02T08:52:19;98413.88;;;24.35;48.85
53116;BME280;39010;48.088;7.954;2022-09-02T08:54:53;98414.50;;;23.70;47.25
53116;BME280;39010;48.088;7.954;2022-09-02T08:57:22;98419.97;;;23.44;47.42
53116;BME280;39010;48.088;7.954;2022-09-02T08:59:50;98418.88;;;23.87;45.78
53116;BME280;39010;48.088;7.954;2022-09-02T09:02:38;98418.88;;;23.50;45.69
53116;BME280;39010;48.088;7.954;2022-09-02T09:05:22;98415.59;;;23.48;46.94
53116;BME280;39010;48.088;7.954;2022-09-02T09:07:58;98407.66;;;24.09;46.61
53116;BME280;39010;48.088;7.954;2022-09-02T09:11:12;98412.25;;;24.24;43.04
53116;BME280;39010;48.088;7.954;2022-09-02T09:16:57;98403.53;;;24.01;45.95
53116;BME280;39010;48.088;7.954;2022-09-02T09:19:48;98401.16;;;24.76;44.04
53116;BME280;39010;48.088;7.954;2022-09-02T09:22:18;98412.50;;;24.48;43.61
53116;BME280;39010;48.088;7.954;2022-09-02T09:24:48;98398.41;;;24.65;44.39
53116;BME280;39010;48.088;7.954;2022-09-02T09:27:20;98398.31;;;24.96;42.30
53116;BME280;39010;48.088;7.954;2022-09-02T09:29:48;98400.13;;;25.11;43.40
53116;BME280;39010;48.088;7.954;2022-09-02T09:32:36;98384.97;;;25.24;41.60
53116;BME280;39010;48.088;7.954;2022-09-02T09:35:12;98383.03;;;26.24;41.64
53116;BME280;39010;48.088;7.954;2022-09-02T09:37:44;98374.03;;;26.61;40.21
53116;BME280;39010;48.088;7.954;2022-09-02T09:45:48;98371.06;;;26.58;40.72
53116;BME280;39010;48.088;7.954;2022-09-02T09:53:22;98365.13;;;25.33;42.68
53116;BME280;39010;48.088;7.954;2022-09-02T09:56:01;98368.84;;;25.52;41.93
53116;BME280;39010;48.088;7.954;2022-09-02T10:01:30;98351.66;;;25.66;43.13
53116;BME280;39010;48.088;7.954;2022-09-02T10:04:06;98346.69;;;25.68;42.64
53116;BME280;39010;48.088;7.954;2022-09-02T10:06:54;98354.16;;;25.92;41.10
53116;BME280;39010;48.088;7.954;2022-09-02T10:09:31;98349.72;;;25.96;41.00
53116;BME280;39010;48.088;7.954;2022-09-02T10:20:21;98342.31;;;25.67;39.09
53116;BME280;39010;48.088;7.954;2022-09-02T10:25:58;98337.78;;;25.81;38.65
53116;BME280;39010;48.088;7.954;2022-09-02T10:31:52;98341.88;;;25.84;40.06
53116;BME280;39010;48.088;7.954;2022-09-02T10:37:16;98341.22;;;26.22;40.98
53116;BME280;39010;48.088;7.954;2022-09-02T10:40:07;98342.63;;;26.62;40.06
53116;BME280;39010;48.088;7.954;2022-09-02T10:45:27;98339.94;;;26.38;39.90
53116;BME280;39010;48.088;7.954;2022-09-02T10:53:29;98330.03;;;27.00;38.90
53116;BME280;39010;48.088;7.954;2022-09-02T10:58:53;98323.66;;;26.42;38.25
53116;BME280;39010;48.088;7.954;2022-09-02T11:01:25;98320.84;;;26.23;38.99
53116;BME280;39010;48.088;7.954;2022-09-02T11:04:18;98316.41;;;26.70;38.56
53116;BME280;39010;48.088;7.954;2022-09-02T11:06:50;98321.69;;;27.05;36.71
53116;BME280;39010;48.088;7.954;2022-09-02T11:09:44;98306.63;;;26.40;38.05
53116;BME280;39010;48.088;7.954;2022-09-02T11:12:14;98311.47;;;26.48;37.07
53116;BME280;39010;48.088;7.954;2022-09-02T11:15:09;98312.50;;;27.29;38.95
53116;BME280;39010;48.088;7.954;2022-09-02T11:18:00;98313.06;;;26.73;37.29
53116;BME280;39010;48.088;7.954;2022-09-02T11:20:32;98310.72;;;26.86;36.38
53116;BME280;39010;48.088;7.954;2022-09-02T11:25:59;98301.78;;;26.94;36.90
53116;BME280;39010;48.088;7.954;2022-09-02T11:34:34;98307.75;;;26.58;37.95
53116;BME280;39010;48.088;7.954;2022-09-02T11:37:05;98307.94;;;26.86;39.67
53116;BME280;39010;48.088;7.954;2022-09-02T11:39:37;98302.81;;;26.98;38.03
53116;BME280;39010;48.088;7.954;2022-09-02T11:42:35;98296.69;;;26.82;37.04
53116;BME280;39010;48.088;7.954;2022-09-02T11:48:31;98299.81;;;27.14;37.19
53116;BME280;39010;48.088;7.954;2022-09-02T11:54:13;98291.03;;;26.73;37.28
53116;BME280;39010;48.088;7.954;2022-09-02T11:56:47;98302.13;;;26.68;37.49
53116;BME280;39010;48.088;7.954;2022-09-02T11:59:26;98298.97;;;26.56;38.24
53116;BME280;39010;48.088;7.954;2022-09-02T12:02:11;98287.94;;;26.99;37.55
53116;BME280;39010;48.088;7.954;2022-09-02T12:04:38;98283.00;;;26.96;36.35
53116;BME280;39010;48.088;7.954;2022-09-02T12:07:25;98277.28;;;26.93;37.61
53116;BME280;39010;48.088;7.954;2022-09-02T12:09:54;98278.38;;;26.91;38.73
53116;BME280;39010;48.088;7.954;2022-09-02T12:18:04;98273.22;;;27.23;37.92
53116;BME280;39010;48.088;7.954;2022-09-02T12:23:02;98270.78;;;27.02;36.62
53116;BME280;39010;48.088;7.954;2022-09-02T12:28:23;98269.72;;;27.17;37.05
53116;BME280;39010;48.088;7.954;2022-09-02T12:33:42;98248.47;;;27.51;36.13
53116;BME280;39010;48.088;7.954;2022-09-02T12:44:26;98235.25;;;27.95;35.83
53116;BME280;39010;48.088;7.954;2022-09-02T12:47:23;98226.47;;;27.93;34.89
53116;BME280;39010;48.088;7.954;2022-09-02T12:50:19;98226.25;;;27.89;35.46
53116;BME280;39010;48.088;7.954;2022-09-02T12:52:49;98222.94;;;27.31;36.81
53116;BME280;39010;48.088;7.954;2022-09-02T12:55:28;98214.59;;;27.51;35.73
53116;BME280;39010;48.088;7.954;2022-09-02T12:58:10;98213.91;;;27.12;36.94
53116;BME280;39010;48.088;7.954;2022-09-02T13:03:34;98205.31;;;27.60;35.61
53116;BME280;39010;48.088;7.954;2022-09-02T13:06:16;98197.25;;;27.78;35.41
53116;BME280;39010;48.088;7.954;2022-09-02T13:17:29;98186.00;;;27.88;36.92
53116;BME280;39010;48.088;7.954;2022-09-02T13:20:36;98183.06;;;28.13;36.77
53116;BME280;39010;48.088;7.954;2022-09-02T13:34:43;98191.28;;;28.27;35.27
53116;BME280;39010;48.088;7.954;2022-09-02T13:37:30;98170.81;;;27.63;34.09
53116;BME280;39010;48.088;7.954;2022-09-02T13:40:00;98173.97;;;27.70;34.09
53116;BME280;39010;48.088;7.954;2022-09-02T13:42:30;98167.31;;;27.43;35.17
53116;BME280;39010;48.088;7.954;2022-09-02T13:45:16;98157.41;;;27.56;36.23
53116;BME280;39010;48.088;7.954;2022-09-02T13:47:45;98158.75;;;27.73;33.73
53116;BME280;39010;48.088;7.954;2022-09-02T13:50:15;98155.06;;;27.77;33.87
53116;BME280;39010;48.088;7.954;2022-09-02T13:52:45;98152.91;;;27.32;34.88
53116;BME280;39010;48.088;7.954;2022-09-02T13:55:33;98159.13;;;27.24;36.04
53116;BME280;39010;48.088;7.954;2022-09-02T13:58:03;98160.03;;;27.05;35.50
53116;BME280;39010;48.088;7.954;2022-09-02T14:00:39;98153.56;;;27.71;36.52
53116;BME280;39010;48.088;7.954;2022-09-02T14:03:12;98160.88;;;27.76;35.76
53116;BME280;39010;48.088;7.954;2022-09-02T14:05:43;98168.19;;;27.39;35.49
53116;BME280;39010;48.088;7.954;2022-09-02T14:08:15;98162.59;;;27.44;36.89
53116;BME280;39010;48.088;7.954;2022-09-02T14:10:44;98155.16;;;27.44;34.72
53116;BME280;39010;48.088;7.954;2022-09-02T14:13:14;98153.72;;;27.47;35.35
53116;BME280;39010;48.088;7.954;2022-09-02T14:15:41;98157.69;;;27.41;35.28
53116;BME280;39010;48.088;7.954;2022-09-02T14:18:19;98146.78;;;27.35;35.59
53116;BME280;39010;48.088;7.954;2022-09-02T14:23:39;98139.75;;;27.71;35.80
53116;BME280;39010;48.088;7.954;2022-09-02T14:26:19;98144.78;;;27.69;35.08
53116;BME280;39010;48.088;7.954;2022-09-02T14:28:51;98149.66;;;27.58;35.14
53116;BME280;39010;48.088;7.954;2022-09-02T14:31:26;98154.31;;;27.44;34.40
53116;BME280;39010;48.088;7.954;2022-09-02T14:33:56;98161.19;;;27.60;34.09
53116;BME280;39010;48.088;7.954;2022-09-02T14:38:50;98168.44;;;27.28;34.96
53116;BME280;39010;48.088;7.954;2022-09-02T14:41:29;98166.13;;;27.02;34.64
53116;BME280;39010;48.088;7.954;2022-09-02T14:43:59;98166.38;;;27.20;35.55
53116;BME280;39010;48.088;7.954;2022-09-02T14:46:43;98157.47;;;27.09;37.87
53116;BME280;39010;48.088;7.954;2022-09-02T14:49:20;98165.25;;;27.21;36.22
53116;BME280;39010;48.088;7.954;2022-09-02T14:51:49;98152.06;;;27.46;36.23
53116;BME280;39010;48.088;7.954;2022-09-02T14:54:37;98161.88;;;27.38;37.54
53116;BME280;39010;48.088;7.954;2022-09-02T14:57:19;98161.38;;;27.22;34.00
53116;BME280;39010;48.088;7.954;2022-09-02T14:59:47;98160.34;;;27.32;34.87
53116;BME280;39010;48.088;7.954;2022-09-02T15:02:28;98165.97;;;27.27;34.73
53116;BME280;39010;48.088;7.954;2022-09-02T15:04:59;98159.41;;;27.09;37.56
53116;BME280;39010;48.088;7.954;2022-09-02T15:07:27;98163.34;;;26.69;36.11
53116;BME280;39010;48.088;7.954;2022-09-02T15:09:54;98161.69;;;26.35;34.95
53116;BME280;39010;48.088;7.954;2022-09-02T15:12:27;98164.28;;;26.26;37.60
53116;BME280;39010;48.088;7.954;2022-09-02T15:14:55;98173.88;;;25.85;42.34